Time;durP1;ratioP1;P1;durP2;ratioP2;P2;SDS_P1;SDS_P2;PMS_P1;PMS_P2;Temp;Humidity;BMP_temperature;BMP_pressure;BME280_temperature;BME280_humidity;BME280_pressure;Samples;Min_cycle;Max_cycle;Signal;HPM_P1;HPM_P2
2022/03/16 00:01:53;;;;;;;60.67;22.77;;;;;;;8.82;74.67;100714.09;4974010;28;20054;-83
2022/03/16 00:04:20;;;;;;;61.50;22.73;;;;;;;8.82;74.65;100713.25;4993675;28;20041;-83
2022/03/16 00:06:47;;;;;;;57.47;22.92;;;;;;;8.81;74.48;100719.53;4996328;28;20042;-83
2022/03/16 00:09:14;;;;;;;55.50;22.02;;;;;;;8.80;74.46;100728.41;4991814;28;20119;-83
2022/03/16 00:11:42;;;;;;;60.67;23.77;;;;;;;8.78;74.56;100727.69;4989315;28;20049;-83
2022/03/16 00:14:09;;;;;;;58.55;22.33;;;;;;;8.77;74.61;100718.84;5020112;28;20132;-83
2022/03/16 00:16:36;;;;;;;57.15;22.67;;;;;;;8.76;74.23;100717.19;5003798;28;20132;-83
2022/03/16 00:19:03;;;;;;;53.88;23.30;;;;;;;8.76;74.25;100721.63;4995523;28;20111;-83
2022/03/16 00:21:29;;;;;;;55.60;22.83;;;;;;;8.75;73.96;100727.84;5011111;28;20393;-83
2022/03/16 00:23:56;;;;;;;62.33;24.08;;;;;;;8.75;74.21;100722.56;5019774;28;20129;-83
2022/03/16 00:26:23;;;;;;;60.55;23.02;;;;;;;8.74;74.04;100719.06;5001478;28;20049;-83
2022/03/16 00:28:50;;;;;;;61.63;23.75;;;;;;;8.73;73.91;100720.03;4987129;28;20034;-83
2022/03/16 00:31:17;;;;;;;64.80;26.30;;;;;;;8.73;74.03;100721.81;4992440;28;20074;-83
2022/03/16 00:33:45;;;;;;;60.45;23.83;;;;;;;8.69;73.85;100713.22;4976071;28;20044;-84
2022/03/16 00:36:12;;;;;;;62.92;25.02;;;;;;;8.70;73.90;100725.50;4952324;28;20066;-84
2022/03/16 00:38:39;;;;;;;59.22;23.88;;;;;;;8.68;73.97;100725.63;4988605;28;20412;-83
2022/03/16 00:41:07;;;;;;;57.17;23.67;;;;;;;8.68;73.96;100720.34;4980799;28;20483;-83
2022/03/16 00:43:34;;;;;;;60.90;23.33;;;;;;;8.68;74.06;100727.44;4991012;28;20046;-83
2022/03/16 00:46:01;;;;;;;51.28;21.05;;;;;;;8.67;74.29;100723.06;4975068;28;20377;-83
2022/03/16 00:48:32;;;;;;;62.17;22.55;;;;;;;8.63;73.84;100729.53;4966247;28;20504;-84
2022/03/16 00:50:59;;;;;;;68.10;25.73;;;;;;;8.65;74.09;100730.25;4985954;28;20117;-84
2022/03/16 00:53:26;;;;;;;71.55;26.60;;;;;;;8.65;74.26;100732.91;4985781;28;20045;-83
2022/03/16 00:55:52;;;;;;;63.08;25.13;;;;;;;8.64;74.36;100737.38;4956866;28;20065;-83
2022/03/16 00:58:24;;;;;;;63.80;23.92;;;;;;;8.63;74.22;100729.53;5000174;28;20124;-83
2022/03/16 01:00:50;;;;;;;67.55;25.42;;;;;;;8.63;74.33;100734.84;4999003;28;20077;-83
2022/03/16 01:03:19;;;;;;;63.72;25.55;;;;;;;8.60;74.09;100735.88;4966337;28;20050;-83
2022/03/16 01:05:46;;;;;;;65.75;24.90;;;;;;;8.60;73.94;100735.00;4991885;28;20482;-84
2022/03/16 01:08:13;;;;;;;62.70;25.00;;;;;;;8.52;74.41;100730.22;4999378;28;20045;-83
2022/03/16 01:10:41;;;;;;;62.42;24.00;;;;;;;8.52;74.02;100722.28;5004180;28;20172;-84
2022/03/16 01:13:08;;;;;;;56.28;22.58;;;;;;;8.52;73.74;100729.38;4968796;28;20490;-83
2022/03/16 01:15:35;;;;;;;61.45;24.10;;;;;;;8.51;74.05;100731.19;4950820;28;20045;-83
2022/03/16 01:18:01;;;;;;;59.70;22.42;;;;;;;8.51;73.96;100730.34;4985423;28;20417;-83
2022/03/16 01:20:28;;;;;;;53.60;22.42;;;;;;;8.50;73.80;100728.63;4995161;28;20050;-83
2022/03/16 01:22:55;;;;;;;57.42;22.60;;;;;;;8.51;73.52;100735.63;4949885;28;20697;-83
2022/03/16 01:25:23;;;;;;;62.55;23.45;;;;;;;8.49;73.49;100735.72;4987500;28;20125;-83
2022/03/16 01:27:50;;;;;;;57.05;22.63;;;;;;;8.49;73.09;100735.72;4986267;28;20046;-83
2022/03/16 01:30:16;;;;;;;62.47;23.75;;;;;;;8.47;73.28;100734.97;5006085;28;20883;-83
2022/03/16 01:32:44;;;;;;;56.28;23.77;;;;;;;8.48;73.28;100741.97;4971202;28;20513;-83
2022/03/16 01:35:11;;;;;;;56.97;22.02;;;;;;;8.45;73.12;100743.03;5004557;28;20045;-83
2022/03/16 01:37:43;;;;;;;56.08;21.75;;;;;;;8.44;72.87;100748.41;5001886;28;20132;-83
2022/03/16 01:40:10;;;;;;;56.33;23.30;;;;;;;8.42;72.88;100740.59;4984016;28;20644;-83
2022/03/16 01:42:37;;;;;;;54.88;22.88;;;;;;;8.41;72.74;100741.50;4965861;28;20048;-83
2022/03/16 01:45:04;;;;;;;52.78;21.80;;;;;;;8.41;72.65;100745.97;4989207;28;20057;-83
2022/03/16 01:47:32;;;;;;;65.25;24.73;;;;;;;8.38;72.59;100744.34;4998766;28;20066;-83
2022/03/16 01:49:59;;;;;;;61.55;24.08;;;;;;;8.39;72.81;100748.69;4968094;28;20073;-83
2022/03/16 01:52:28;;;;;;;64.72;24.73;;;;;;;8.37;72.62;100745.28;4985460;28;20049;-83
2022/03/16 01:54:56;;;;;;;59.22;25.73;;;;;;;8.37;72.36;100745.28;4972434;28;20481;-83
2022/03/16 01:57:24;;;;;;;65.55;25.10;;;;;;;8.36;72.71;100743.59;4964342;28;20096;-84
2022/03/16 01:59:51;;;;;;;69.30;25.25;;;;;;;8.35;72.37;100751.63;4987610;28;20062;-83
2022/03/16 02:02:45;;;;;;;67.93;24.92;;;;;;;8.20;72.39;100745.53;4989325;28;20084;-83
2022/03/16 02:05:13;;;;;;;74.32;26.63;;;;;;;8.30;72.44;100746.63;4937213;28;20049;-83
2022/03/16 02:07:42;;;;;;;63.55;24.88;;;;;;;8.28;72.29;100745.88;4993084;28;20538;-83
2022/03/16 02:10:09;;;;;;;57.53;23.48;;;;;;;8.26;72.19;100748.59;4993681;28;20053;-83
2022/03/16 02:12:48;;;;;;;59.10;24.27;;;;;;;8.16;72.08;100741.38;4989636;28;20405;-83
2022/03/16 02:15:15;;;;;;;58.55;22.73;;;;;;;8.21;71.98;100745.41;4981778;28;20116;-83
2022/03/16 02:17:42;;;;;;;66.88;22.15;;;;;;;8.20;72.03;100741.06;4985296;28;20070;-83
2022/03/16 02:20:10;;;;;;;60.40;23.83;;;;;;;8.14;71.81;100738.84;4992534;28;20045;-83
2022/03/16 02:22:50;;;;;;;62.58;23.63;;;;;;;8.07;71.62;100749.91;4970981;28;20493;-83
2022/03/16 02:25:20;;;;;;;63.70;23.38;;;;;;;8.03;71.72;100742.13;4990529;28;20115;-83
2022/03/16 02:27:47;;;;;;;61.20;23.17;;;;;;;8.00;71.54;100755.56;5008949;28;20124;-83
2022/03/16 02:30:14;;;;;;;66.07;25.10;;;;;;;7.99;71.60;100753.88;4989516;28;20049;-83
2022/03/16 02:32:41;;;;;;;90.50;26.52;;;;;;;7.98;71.80;100744.22;4997720;28;20111;-83
2022/03/16 02:35:08;;;;;;;68.55;25.58;;;;;;;7.96;71.71;100748.78;5008972;28;20052;-83
2022/03/16 02:37:37;;;;;;;71.00;26.70;;;;;;;7.94;72.08;100748.03;4969322;28;20046;-83
2022/03/16 02:40:04;;;;;;;75.30;25.27;;;;;;;7.95;71.78;100748.88;4990200;28;20050;-83
2022/03/16 02:42:31;;;;;;;71.20;25.63;;;;;;;7.93;71.83;100745.47;4983752;28;20052;-83
2022/03/16 02:44:58;;;;;;;79.03;25.02;;;;;;;7.92;71.89;100751.72;4987577;28;20053;-83
2022/03/16 02:47:24;;;;;;;70.55;25.48;;;;;;;7.90;71.94;100753.59;4982537;28;20038;-83
2022/03/16 02:49:51;;;;;;;69.18;25.42;;;;;;;7.89;71.89;100759.84;4982195;28;20046;-83
2022/03/16 02:52:18;;;;;;;76.50;27.15;;;;;;;7.77;72.40;100757.00;5009035;28;20042;-83
2022/03/16 02:54:45;;;;;;;82.68;25.25;;;;;;;7.80;72.24;100766.53;4989831;28;20050;-83
2022/03/16 02:57:13;;;;;;;70.05;25.90;;;;;;;7.79;72.15;100767.50;5005239;28;20054;-83
2022/03/16 02:59:40;;;;;;;82.75;25.23;;;;;;;7.72;72.10;100776.75;4998018;28;20272;-83
2022/03/16 03:02:07;;;;;;;65.88;25.10;;;;;;;7.73;71.82;100766.06;5003035;28;20386;-84
2022/03/16 03:04:34;;;;;;;93.07;26.02;;;;;;;7.73;71.94;100765.22;5001748;28;20077;-83
2022/03/16 03:07:01;;;;;;;74.05;25.25;;;;;;;7.72;72.14;100771.47;5000957;28;20042;-83
2022/03/16 03:09:27;;;;;;;73.78;24.65;;;;;;;7.59;72.13;100766.06;4950731;28;20386;-83
2022/03/16 03:11:55;;;;;;;83.28;28.52;;;;;;;7.65;72.20;100770.13;5008332;28;20050;-83
2022/03/16 03:14:22;;;;;;;80.82;28.73;;;;;;;7.58;72.25;100770.53;4994273;28;20412;-83
2022/03/16 03:16:48;;;;;;;96.90;30.40;;;;;;;7.63;71.64;100777.31;5002089;28;20049;-83
2022/03/16 03:19:21;;;;;;;87.50;30.27;;;;;;;7.60;72.08;100775.69;4964919;28;20050;-83
2022/03/16 03:21:48;;;;;;;82.85;28.98;;;;;;;7.60;71.65;100781.81;4992591;28;20043;-83
2022/03/16 03:24:15;;;;;;;87.20;29.73;;;;;;;7.53;72.00;100784.94;5001458;28;20429;-83
2022/03/16 03:26:41;;;;;;;84.35;30.63;;;;;;;7.53;71.79;100785.81;5003070;28;20041;-82
2022/03/16 03:29:08;;;;;;;83.55;29.70;;;;;;;7.51;71.77;100786.84;4984132;28;20100;-83
2022/03/16 03:31:35;;;;;;;86.45;31.40;;;;;;;7.53;71.76;100788.44;5013473;28;20120;-83
2022/03/16 03:34:03;;;;;;;81.28;30.48;;;;;;;7.48;71.69;100782.59;4966996;28;20046;-83
2022/03/16 03:36:32;;;;;;;79.38;29.85;;;;;;;7.46;71.72;100792.41;5002027;28;20041;-83
2022/03/16 03:38:58;;;;;;;81.68;28.23;;;;;;;7.45;71.94;100789.84;5007319;28;20397;-83
2022/03/16 03:41:25;;;;;;;94.65;32.67;;;;;;;7.49;71.96;100792.22;4990229;28;20042;-83
2022/03/16 03:43:52;;;;;;;80.78;30.27;;;;;;;7.30;72.07;100783.69;4982730;28;20046;-83
2022/03/16 03:46:19;;;;;;;82.22;28.67;;;;;;;7.28;71.93;100789.06;4977883;28;20401;-83
2022/03/16 03:48:45;;;;;;;89.25;32.13;;;;;;;7.21;72.56;100789.53;5010176;28;20042;-83
2022/03/16 03:51:12;;;;;;;80.72;30.08;;;;;;;7.28;72.42;100789.06;4997275;28;20535;-83
2022/03/16 03:53:39;;;;;;;90.60;31.88;;;;;;;7.20;72.89;100791.31;4987633;28;20054;-83
2022/03/16 03:56:06;;;;;;;89.15;31.90;;;;;;;7.13;72.74;100793.47;4978540;28;20054;-83
2022/03/16 03:58:33;;;;;;;77.63;29.38;;;;;;;7.20;72.33;100793.97;4966775;28;20370;-83
2022/03/16 04:00:59;;;;;;;79.82;30.23;;;;;;;7.17;72.47;100792.34;4964608;28;20043;-83
2022/03/16 04:03:26;;;;;;;77.22;29.42;;;;;;;7.20;72.06;100796.59;4980530;28;20047;-83
2022/03/16 04:05:53;;;;;;;71.93;26.88;;;;;;;7.21;72.24;100800.94;4990353;28;20375;-83
2022/03/16 04:08:20;;;;;;;76.25;29.77;;;;;;;7.24;72.39;100802.53;4981850;28;20189;-83
2022/03/16 04:10:47;;;;;;;70.35;27.00;;;;;;;7.29;72.34;100808.41;4977164;28;20046;-83
2022/03/16 04:13:15;;;;;;;74.07;28.90;;;;;;;7.30;72.16;100813.63;4987811;28;20049;-83
2022/03/16 04:15:42;;;;;;;66.53;26.10;;;;;;;7.32;72.39;100810.84;4976469;28;20052;-83
2022/03/16 04:18:09;;;;;;;72.60;27.27;;;;;;;7.32;71.94;100817.00;5004428;28;20053;-83
2022/03/16 04:20:36;;;;;;;80.25;31.13;;;;;;;7.22;72.38;100820.28;4985253;28;20048;-83
2022/03/16 04:23:02;;;;;;;79.70;31.63;;;;;;;7.23;72.21;100819.34;4973093;28;20046;-83
2022/03/16 04:25:29;;;;;;;74.85;28.85;;;;;;;7.25;72.22;100820.09;4997618;28;20041;-82
2022/03/16 04:27:56;;;;;;;78.57;28.00;;;;;;;7.27;72.10;100826.97;4990191;28;20052;-83
2022/03/16 04:30:23;;;;;;;70.32;26.70;;;;;;;7.29;72.04;100822.47;4999066;28;20052;-83
2022/03/16 04:32:52;;;;;;;71.40;28.33;;;;;;;7.27;71.90;100821.69;4989899;28;20120;-83
2022/03/16 04:35:20;;;;;;;74.75;27.15;;;;;;;7.28;71.77;100831.34;5019706;28;20046;-83
2022/03/16 04:37:47;;;;;;;71.60;27.27;;;;;;;7.24;71.93;100832.44;5008471;28;20034;-83
2022/03/16 04:40:14;;;;;;;64.15;25.98;;;;;;;7.20;72.09;100830.94;4978955;28;20041;-83
2022/03/16 04:42:41;;;;;;;70.80;27.98;;;;;;;7.20;71.94;100825.66;5005887;28;20489;-83
2022/03/16 04:45:09;;;;;;;75.78;27.45;;;;;;;7.21;72.10;100832.63;4984116;28;20153;-83
2022/03/16 04:47:35;;;;;;;72.45;27.13;;;;;;;7.21;72.20;100826.50;4989892;28;20050;-83
2022/03/16 04:50:06;;;;;;;73.45;28.23;;;;;;;7.20;72.22;100828.31;4999028;28;20046;-83
2022/03/16 04:52:41;;;;;;;70.82;29.10;;;;;;;7.20;72.25;100830.94;4978629;28;20046;-83
2022/03/16 04:55:08;;;;;;;74.05;28.30;;;;;;;7.24;72.29;100828.97;5004467;28;20046;-83
2022/03/16 04:57:35;;;;;;;70.00;27.40;;;;;;;7.23;72.49;100825.47;4999778;28;20371;-83
2022/03/16 05:00:03;;;;;;;69.32;26.13;;;;;;;7.24;72.32;100821.88;5005393;28;20064;-83
2022/03/16 05:02:30;;;;;;;72.90;26.70;;;;;;;7.26;72.61;100835.84;5005298;28;20557;-83
2022/03/16 05:04:56;;;;;;;65.25;24.77;;;;;;;7.28;72.69;100836.63;4951391;28;20050;-83
2022/03/16 05:07:23;;;;;;;66.75;25.42;;;;;;;7.29;72.90;100843.59;4967851;28;20143;-79
2022/03/16 05:09:50;;;;;;;74.78;26.90;;;;;;;7.31;72.51;100844.34;5002994;28;20146;-79
2022/03/16 05:12:17;;;;;;;66.20;25.45;;;;;;;7.33;72.60;100839.84;4989106;28;20096;-79
2022/03/16 05:14:44;;;;;;;71.55;26.23;;;;;;;7.33;72.87;100839.84;4989055;28;20498;-79
2022/03/16 05:17:10;;;;;;;65.40;25.02;;;;;;;7.34;72.56;100838.88;4966750;28;20056;-79
2022/03/16 05:19:37;;;;;;;66.00;23.90;;;;;;;7.35;72.77;100837.97;5001228;28;20091;-79
2022/03/16 05:22:05;;;;;;;68.30;25.52;;;;;;;7.34;72.54;100833.59;4983579;28;20053;-79
2022/03/16 05:24:33;;;;;;;65.45;26.02;;;;;;;7.36;72.66;100838.81;5004370;28;20056;-80
2022/03/16 05:27:01;;;;;;;70.85;26.50;;;;;;;7.36;72.58;100839.66;4987986;28;20074;-79
2022/03/16 05:29:27;;;;;;;72.95;25.88;;;;;;;7.36;72.65;100842.28;4995047;28;20045;-79
2022/03/16 05:31:55;;;;;;;66.38;26.55;;;;;;;7.36;72.76;100838.81;4989088;28;20046;-79
2022/03/16 05:34:22;;;;;;;67.03;25.88;;;;;;;7.34;72.71;100836.25;5008512;28;20042;-79
2022/03/16 05:36:49;;;;;;;62.65;26.15;;;;;;;7.33;72.57;100841.63;5002185;28;20120;-79
2022/03/16 05:39:15;;;;;;;70.13;27.20;;;;;;;7.33;72.39;100841.63;4975548;28;20049;-80
2022/03/16 05:41:42;;;;;;;72.03;26.58;;;;;;;7.32;72.44;100838.13;5004501;28;20049;-80
2022/03/16 05:44:10;;;;;;;76.57;28.52;;;;;;;7.31;72.64;100839.06;4999822;28;20073;-80
2022/03/16 05:46:36;;;;;;;75.88;27.83;;;;;;;7.30;72.40;100837.38;4954655;28;20416;-79
2022/03/16 05:49:03;;;;;;;79.32;28.38;;;;;;;7.30;71.93;100840.03;4985980;28;20050;-79
2022/03/16 05:51:30;;;;;;;67.72;26.52;;;;;;;7.27;71.95;100840.19;4984736;28;20042;-79
2022/03/16 05:53:57;;;;;;;69.15;27.63;;;;;;;7.27;71.99;100844.63;5003849;28;20107;-79
2022/03/16 05:56:23;;;;;;;67.07;27.08;;;;;;;7.27;72.07;100847.28;4992877;28;20189;-82
2022/03/16 05:58:50;;;;;;;72.63;26.63;;;;;;;7.26;72.32;100848.22;4993200;28;20045;-80
2022/03/16 06:01:17;;;;;;;70.22;26.63;;;;;;;7.26;72.10;100845.56;4971748;28;20043;-79
2022/03/16 06:03:44;;;;;;;70.28;27.60;;;;;;;7.24;72.34;100848.28;4983616;28;20038;-80
2022/03/16 06:06:11;;;;;;;75.75;29.55;;;;;;;7.24;72.12;100850.09;4980869;28;20050;-80
2022/03/16 06:08:38;;;;;;;73.03;27.65;;;;;;;7.24;72.12;100847.44;4988169;28;20046;-78
2022/03/16 06:11:04;;;;;;;65.13;25.98;;;;;;;7.26;72.06;100851.72;4997981;28;20042;-79
2022/03/16 06:13:31;;;;;;;65.15;25.17;;;;;;;7.23;71.88;100848.41;4973360;28;20475;-80
2022/03/16 06:15:58;;;;;;;59.53;23.88;;;;;;;7.17;71.59;100847.81;5002414;28;20045;-80
2022/03/16 06:18:25;;;;;;;64.03;25.13;;;;;;;7.16;71.70;100850.53;5001707;28;20442;-79
2022/03/16 06:20:53;;;;;;;66.28;25.27;;;;;;;7.09;72.26;100850.03;4961581;28;20042;-79
2022/03/16 06:23:21;;;;;;;59.75;25.38;;;;;;;7.12;72.18;100847.25;4999107;28;20161;-80
2022/03/16 06:25:47;;;;;;;67.78;26.17;;;;;;;7.15;72.08;100857.63;4986591;28;20046;-81
2022/03/16 06:28:14;;;;;;;65.22;25.58;;;;;;;7.16;71.90;100856.66;5019497;28;20043;-80
2022/03/16 06:30:41;;;;;;;65.57;25.80;;;;;;;7.05;72.26;100860.88;4974388;28;20053;-79
2022/03/16 06:33:10;;;;;;;69.40;26.63;;;;;;;7.09;72.23;100867.69;4985024;28;20125;-79
2022/03/16 06:35:36;;;;;;;75.10;29.23;;;;;;;7.11;72.21;100858.72;5016076;28;20397;-80
2022/03/16 06:38:03;;;;;;;67.82;26.48;;;;;;;7.12;72.37;100871.00;4968192;28;20046;-80
2022/03/16 06:40:34;;;;;;;67.03;27.50;;;;;;;7.11;72.55;100868.44;4988594;28;20057;-80
2022/03/16 06:43:01;;;;;;;70.40;28.00;;;;;;;7.04;72.86;100867.09;5000461;28;20497;-79
2022/03/16 06:45:30;;;;;;;70.05;26.27;;;;;;;7.05;72.81;100874.94;4991238;28;20128;-79
2022/03/16 06:47:59;;;;;;;67.22;25.75;;;;;;;7.04;72.48;100875.84;4987963;28;20046;-79
2022/03/16 06:50:28;;;;;;;60.92;24.67;;;;;;;7.01;72.49;100872.56;4990223;28;20405;-79
2022/03/16 06:52:56;;;;;;;61.90;24.23;;;;;;;6.91;72.55;100866.94;4983124;28;20065;-79
2022/03/16 06:55:22;;;;;;;69.32;25.88;;;;;;;6.84;72.74;100869.06;4989527;28;20121;-79
2022/03/16 06:57:50;;;;;;;63.15;24.85;;;;;;;6.83;72.75;100872.66;4986132;28;20049;-78
2022/03/16 07:00:16;;;;;;;61.67;25.35;;;;;;;6.72;73.79;100877.69;5002597;28;20394;-80
2022/03/16 07:03:03;;;;;;;73.57;26.92;;;;;;;6.77;72.75;100869.50;4997450;28;20058;-80
2022/03/16 07:05:38;;;;;;;58.10;23.50;;;;;;;6.79;72.78;100879.03;4975568;28;20100;-79
2022/03/16 07:08:10;;;;;;;60.70;24.25;;;;;;;6.80;72.76;100885.19;5045578;28;20068;-79
2022/03/16 07:10:38;;;;;;;63.03;24.73;;;;;;;6.86;72.67;100874.25;5000358;28;20042;-80
2022/03/16 07:13:11;;;;;;;64.68;24.67;;;;;;;6.95;72.75;100879.03;5002327;28;20049;-80
2022/03/16 07:15:42;;;;;;;64.40;24.60;;;;;;;6.95;72.85;100879.88;5011117;28;20073;-79
2022/03/16 07:18:09;;;;;;;60.60;23.70;;;;;;;7.00;72.46;100877.00;5009996;28;20045;-79
2022/03/16 07:20:37;;;;;;;62.28;23.98;;;;;;;6.86;73.09;100887.47;4997852;28;20046;-80
2022/03/16 07:23:11;;;;;;;63.80;23.90;;;;;;;7.00;72.74;100881.41;4999913;28;20042;-78
2022/03/16 07:25:46;;;;;;;63.80;24.27;;;;;;;6.86;73.40;100885.66;4956841;28;20477;-78
2022/03/16 07:28:13;;;;;;;61.45;24.65;;;;;;;6.87;73.81;100887.41;4979338;28;20046;-78
2022/03/16 07:30:41;;;;;;;70.40;25.15;;;;;;;7.02;73.03;100884.81;4963262;28;20042;-78
2022/03/16 07:33:09;;;;;;;67.93;25.52;;;;;;;7.05;73.02;100889.94;4996700;28;20050;-79
2022/03/16 07:35:36;;;;;;;64.63;24.88;;;;;;;7.12;73.22;100886.84;4969764;28;20042;-78
2022/03/16 07:38:04;;;;;;;59.80;23.50;;;;;;;7.15;73.03;100886.69;5000134;28;20046;-78
2022/03/16 07:40:33;;;;;;;59.58;23.70;;;;;;;7.20;72.95;100888.19;4986986;28;20056;-79
2022/03/16 07:43:01;;;;;;;63.25;24.73;;;;;;;7.23;72.79;100885.38;5003937;28;20052;-79
2022/03/16 07:45:32;;;;;;;59.65;24.00;;;;;;;7.25;72.86;100888.78;4973733;28;20825;-78
2022/03/16 07:48:00;;;;;;;67.53;26.10;;;;;;;7.27;73.09;100895.66;4937328;28;20222;-81
2022/03/16 07:50:29;;;;;;;60.08;24.33;;;;;;;7.27;72.92;100898.31;4990632;28;20053;-79
2022/03/16 07:52:56;;;;;;;67.25;26.23;;;;;;;7.22;73.49;100902.16;4991536;28;20806;-78
2022/03/16 07:55:23;;;;;;;63.13;24.27;;;;;;;7.28;73.32;100896.53;4980920;28;20401;-78
2022/03/16 07:57:50;;;;;;;68.03;25.67;;;;;;;7.32;73.16;100901.53;4985653;28;20052;-78
2022/03/16 08:00:17;;;;;;;68.40;25.65;;;;;;;7.34;73.70;100897.00;5005589;28;20045;-78
2022/03/16 08:02:45;;;;;;;62.40;24.60;;;;;;;7.37;73.38;100896.84;5000237;28;20412;-78
2022/03/16 08:05:12;;;;;;;67.88;25.98;;;;;;;7.41;73.39;100902.81;4998176;28;20056;-81
2022/03/16 08:07:39;;;;;;;66.60;25.30;;;;;;;7.36;74.01;100912.78;5005827;28;20069;-78
2022/03/16 08:10:06;;;;;;;71.53;26.95;;;;;;;7.41;73.99;100907.25;4986214;28;20056;-78
2022/03/16 08:12:34;;;;;;;66.15;26.70;;;;;;;7.43;73.76;100914.16;4992023;28;20382;-80
2022/03/16 08:15:01;;;;;;;66.45;25.92;;;;;;;7.49;73.54;100907.66;4990963;28;20092;-79
2022/03/16 08:17:28;;;;;;;66.43;25.55;;;;;;;7.50;74.11;100906.69;5012092;28;20091;-79
2022/03/16 08:19:55;;;;;;;65.43;25.30;;;;;;;7.55;73.59;100909.91;4987297;28;20559;-79
2022/03/16 08:22:25;;;;;;;66.70;25.45;;;;;;;7.53;73.93;100906.50;4988963;28;20056;-79
2022/03/16 08:24:54;;;;;;;67.35;26.50;;;;;;;7.57;73.76;100900.13;4987970;28;20041;-78
2022/03/16 08:27:23;;;;;;;68.78;26.02;;;;;;;7.58;73.91;100900.03;5008767;28;20516;-79
2022/03/16 08:29:50;;;;;;;62.95;26.55;;;;;;;7.58;74.13;100896.50;4993316;28;20060;-79
2022/03/16 08:32:17;;;;;;;63.75;24.70;;;;;;;7.60;73.97;100899.94;4969204;28;20057;-78
2022/03/16 08:34:44;;;;;;;65.63;25.60;;;;;;;7.60;74.45;100903.41;4981024;28;20056;-79
2022/03/16 08:37:11;;;;;;;64.85;24.70;;;;;;;7.61;74.32;100894.56;4975930;28;20448;-79
2022/03/16 08:39:39;;;;;;;65.07;27.05;;;;;;;7.66;74.30;100890.78;4976338;28;20412;-79
2022/03/16 08:42:06;;;;;;;72.40;26.90;;;;;;;7.70;74.59;100905.53;4988737;28;20078;-80
2022/03/16 08:44:34;;;;;;;69.88;26.63;;;;;;;7.71;74.89;100902.81;4986420;28;20130;-79
2022/03/16 08:47:01;;;;;;;70.90;26.33;;;;;;;7.81;74.29;100898.66;5003477;28;20437;-78
2022/03/16 08:49:29;;;;;;;64.18;25.15;;;;;;;7.79;74.33;100897.91;4976238;28;20041;-80
2022/03/16 08:51:57;;;;;;;64.32;26.13;;;;;;;7.81;74.21;100898.66;4981795;28;20050;-78
2022/03/16 08:54:24;;;;;;;59.88;24.13;;;;;;;7.82;74.27;100899.50;4993177;28;20048;-79
2022/03/16 08:56:53;;;;;;;63.45;25.23;;;;;;;7.85;74.57;100891.38;4989534;28;20049;-78
2022/03/16 08:59:20;;;;;;;68.28;25.50;;;;;;;7.85;74.46;100888.75;4991229;28;20505;-79
2022/03/16 09:01:47;;;;;;;64.53;24.83;;;;;;;7.90;74.67;100885.81;4977570;28;20050;-79
2022/03/16 09:04:14;;;;;;;64.68;25.17;;;;;;;7.89;74.94;100881.50;4975563;28;20587;-78
2022/03/16 09:06:41;;;;;;;65.50;26.25;;;;;;;7.90;75.08;100875.25;4990800;28;20058;-79
2022/03/16 09:09:08;;;;;;;57.20;23.60;;;;;;;7.90;75.03;100873.44;5000659;28;20078;-78
2022/03/16 09:11:35;;;;;;;63.42;25.05;;;;;;;7.95;74.90;100874.03;5003918;28;20403;-79
2022/03/16 09:14:05;;;;;;;63.25;24.90;;;;;;;7.96;75.08;100864.28;4987194;28;20470;-79
2022/03/16 09:16:32;;;;;;;58.67;22.67;;;;;;;8.00;75.23;100866.66;4967515;28;20045;-79
2022/03/16 09:18:59;;;;;;;49.40;21.77;;;;;;;8.02;74.96;100869.22;4983679;28;20038;-79
2022/03/16 09:21:25;;;;;;;52.67;23.00;;;;;;;8.07;75.14;100866.28;4980399;28;20105;-79
2022/03/16 09:23:53;;;;;;;54.00;22.25;;;;;;;8.08;74.49;100868.81;4970648;28;20049;-80
2022/03/16 09:26:21;;;;;;;51.58;21.58;;;;;;;8.11;74.48;100866.00;4992191;28;20053;-80
2022/03/16 09:28:49;;;;;;;50.58;20.42;;;;;;;8.13;74.56;100858.81;4994421;28;20060;-79
2022/03/16 09:31:17;;;;;;;51.17;22.20;;;;;;;8.20;74.68;100861.94;5008692;28;20053;-79
2022/03/16 09:33:45;;;;;;;51.42;22.20;;;;;;;8.19;74.60;100858.44;4997581;28;20061;-78
2022/03/16 09:36:12;;;;;;;50.28;21.73;;;;;;;8.22;74.66;100855.59;4986850;28;20405;-80
2022/03/16 09:38:38;;;;;;;52.22;20.98;;;;;;;8.25;74.47;100854.56;4957556;28;20042;-80
2022/03/16 09:41:05;;;;;;;45.15;19.17;;;;;;;8.29;74.16;100853.41;4970459;28;20050;-79
2022/03/16 09:43:35;;;;;;;47.63;20.77;;;;;;;8.26;74.19;100843.88;4972346;28;20065;-79
2022/03/16 09:46:09;;;;;;;48.83;21.10;;;;;;;8.29;74.56;100839.34;4983066;28;20073;-80
2022/03/16 09:48:38;;;;;;;46.40;19.90;;;;;;;8.31;74.21;100843.59;4955785;28;20116;-80
2022/03/16 09:51:06;;;;;;;46.10;20.08;;;;;;;8.35;74.03;100845.09;4984262;28;20068;-79
2022/03/16 09:53:33;;;;;;;44.53;18.60;;;;;;;8.35;73.96;100842.47;5026617;28;20045;-79
2022/03/16 09:56:00;;;;;;;43.30;18.77;;;;;;;8.38;73.73;100838.78;5009007;28;20054;-79
2022/03/16 09:58:27;;;;;;;46.20;20.48;;;;;;;8.40;73.70;100832.47;5032847;28;20496;-79
2022/03/16 10:00:56;;;;;;;43.22;19.83;;;;;;;8.40;73.84;100835.09;5053026;28;20045;-79
2022/03/16 10:03:28;;;;;;;49.67;21.65;;;;;;;8.43;73.65;100826.13;5005163;28;20042;-79
2022/03/16 10:05:56;;;;;;;46.08;19.42;;;;;;;8.48;73.43;100826.69;4973538;28;20069;-78
2022/03/16 10:08:28;;;;;;;41.00;17.50;;;;;;;8.43;73.39;100826.97;4993728;28;20034;-79
2022/03/16 10:13:57;;;;;;;42.78;19.30;;;;;;;8.47;73.43;100819.66;4973491;28;20080;-79
2022/03/16 10:16:24;;;;;;;44.13;19.75;;;;;;;8.50;72.43;100808.91;4980931;28;20187;-79
2022/03/16 10:18:56;;;;;;;44.88;18.90;;;;;;;8.55;72.65;100805.94;4994167;28;20067;-79
2022/03/16 10:21:24;;;;;;;43.10;18.70;;;;;;;8.55;73.37;100808.59;5033838;28;20045;-78
2022/03/16 10:23:59;;;;;;;46.28;20.15;;;;;;;8.59;72.73;100803.00;5045266;28;20056;-81
2022/03/16 10:26:27;;;;;;;43.30;19.13;;;;;;;8.65;72.87;100797.31;5059035;28;20049;-80
2022/03/16 10:29:03;;;;;;;40.28;18.38;;;;;;;8.68;72.90;100801.56;5025254;28;20103;-80
2022/03/16 10:31:30;;;;;;;43.97;18.60;;;;;;;8.65;73.15;100805.28;5047505;28;20654;-79
2022/03/16 10:33:58;;;;;;;42.67;19.02;;;;;;;8.72;72.43;100799.56;5036204;28;20073;-79
2022/03/16 10:36:26;;;;;;;45.70;19.48;;;;;;;8.75;72.49;100796.72;5012709;28;20106;-80
2022/03/16 10:39:03;;;;;;;44.45;19.33;;;;;;;8.75;72.66;100792.28;5020842;28;20047;-79
2022/03/16 10:47:20;;;;;;;38.17;17.98;;;;;;;8.84;72.93;100786.38;5029310;28;20115;-80
2022/03/16 10:50:02;;;;;;;34.83;15.57;;;;;;;8.83;72.89;100784.69;4983438;28;20129;-79
2022/03/16 10:52:32;;;;;;;38.95;17.00;;;;;;;8.91;72.64;100778.88;5008543;28;20038;-79
2022/03/16 10:55:00;;;;;;;40.30;17.15;;;;;;;8.94;72.55;100777.81;4998504;28;20934;-80
2022/03/16 10:57:27;;;;;;;38.75;16.83;;;;;;;8.97;72.64;100774.97;4988920;28;20429;-80
2022/03/16 10:59:54;;;;;;;34.03;16.00;;;;;;;9.01;72.21;100773.81;4997538;28;20042;-79
2022/03/16 11:02:27;;;;;;;38.47;17.50;;;;;;;9.03;71.77;100777.19;4994971;28;20050;-79
2022/03/16 11:04:57;;;;;;;44.53;18.40;;;;;;;9.11;71.93;100773.09;4948726;28;20525;-79
2022/03/16 11:07:24;;;;;;;37.67;17.05;;;;;;;9.09;71.85;100776.78;4997013;28;20133;-79
2022/03/16 11:09:51;;;;;;;35.40;17.23;;;;;;;9.10;71.73;100776.66;4996927;28;20055;-79
2022/03/16 11:15:11;;;;;;;33.72;15.45;;;;;;;9.15;71.36;100772.88;4981265;28;20053;-79
2022/03/16 11:17:39;;;;;;;38.50;16.17;;;;;;;9.18;71.40;100762.91;5008675;28;20129;-80
2022/03/16 11:20:08;;;;;;;34.10;16.38;;;;;;;9.21;71.47;100761.84;4976940;28;20054;-79
2022/03/16 11:26:17;;;;;;;35.67;16.33;;;;;;;9.13;71.01;100747.34;4942586;28;20042;-79
2022/03/16 11:29:00;;;;;;;33.28;16.52;;;;;;;9.18;70.45;100757.59;4922190;28;20054;-79
2022/03/16 11:31:34;;;;;;;30.15;14.02;;;;;;;9.24;70.54;100754.56;4983219;28;20121;-85
2022/03/16 11:34:05;;;;;;;33.75;16.35;;;;;;;9.30;70.91;100747.97;4977273;28;20046;-85
2022/03/16 11:41:08;;;;;;;34.53;15.52;;;;;;;9.34;70.84;100741.53;5005626;28;20029;-83